createdAt,value
2022-11-27T00:01:59.774Z,76306.91
2022-11-27T00:04:28.467Z,76306.91
2022-11-27T00:06:56.991Z,75794.56
2022-11-27T00:09:25.878Z,75282.31
2022-11-27T00:11:54.898Z,76050.72
2022-11-27T00:14:24.993Z,76050.72
2022-11-27T00:16:53.426Z,76563.09
2022-11-27T00:19:21.755Z,76306.91
2022-11-27T00:21:50.526Z,76306.91
2022-11-27T00:24:19.034Z,76819.28
2022-11-27T00:26:49.897Z,76563.09
2022-11-27T00:29:19.233Z,76819.28
2022-11-27T00:31:49.004Z,76819.28
2022-11-27T00:34:17.613Z,76819.28
2022-11-27T00:36:48.306Z,77588.03
2022-11-27T00:39:17.101Z,78100.63
2022-11-27T00:41:46.432Z,78356.94
2022-11-27T00:44:14.975Z,78613.28
2022-11-27T00:46:43.894Z,79126.03
2022-11-27T00:49:15.922Z,78869.66
2022-11-27T00:51:44.849Z,78869.66
2022-11-27T00:54:13.376Z,78869.66
2022-11-27T00:56:42.328Z,79382.44
2022-11-27T00:59:12.276Z,79382.44
2022-11-27T01:01:43.723Z,79126.03
2022-11-27T01:04:16.402Z,79126.03
2022-11-27T01:06:45.908Z,78869.66
2022-11-27T01:09:15.418Z,78869.66
2022-11-27T01:11:44.577Z,78869.66
2022-11-27T01:14:15.982Z,78613.28
2022-11-27T01:16:44.519Z,78613.28
2022-11-27T01:19:15.545Z,78613.28
2022-11-27T01:21:44.647Z,78613.28
2022-11-27T01:24:15.302Z,78100.63
2022-11-27T01:26:44.325Z,77844.31
2022-11-27T01:29:13.237Z,78100.63
2022-11-27T01:31:42.112Z,77844.31
2022-11-27T01:34:17.125Z,77075.53
2022-11-27T01:36:45.868Z,77075.53
2022-11-27T01:39:17.764Z,76563.09
2022-11-27T01:41:46.985Z,75794.56
2022-11-27T01:44:51.598Z,75538.44
2022-11-27T01:47:32.727Z,74258.06
2022-11-27T01:50:12.745Z,73490.06
2022-11-27T01:52:44.270Z,75026.22
2022-11-27T01:55:20.452Z,74258.06
2022-11-27T01:57:51.172Z,74002.03
2022-11-27T02:00:21.168Z,74258.06
2022-11-27T02:02:50.087Z,74770.16
2022-11-27T02:05:23.945Z,74258.06
2022-11-27T02:07:53.520Z,74770.16
2022-11-27T02:10:24.231Z,74770.16
2022-11-27T02:12:59.131Z,75026.22
2022-11-27T02:15:35.103Z,75538.44
2022-11-27T02:18:12.188Z,76819.28
2022-11-27T02:20:49.635Z,77075.53
2022-11-27T02:23:34.219Z,77844.31
2022-11-27T02:26:38.195Z,78356.94
2022-11-27T02:29:10.380Z,78869.66
2022-11-27T02:31:43.694Z,79382.44
2022-11-27T02:34:24.957Z,79895.28
2022-11-27T02:37:03.595Z,80408.22
2022-11-27T02:39:39.843Z,80921.25
2022-11-27T02:42:14.114Z,81690.91
2022-11-27T02:44:49.462Z,81947.50
2022-11-27T02:47:20.843Z,82204.09
2022-11-27T02:49:51.319Z,81947.50
2022-11-27T02:52:21.638Z,82204.09
2022-11-27T02:54:53.683Z,82460.72
2022-11-27T02:57:24.411Z,82974.03
2022-11-27T02:59:57.152Z,83744.16
2022-11-27T03:02:31.035Z,84000.91
2022-11-27T03:05:02.609Z,84257.66
2022-11-27T03:07:40.795Z,84257.66
2022-11-27T03:10:15.247Z,84000.91
2022-11-27T03:12:43.670Z,84257.66
2022-11-27T03:15:14.851Z,84257.66
2022-11-27T03:17:52.884Z,84514.44
2022-11-27T03:20:25.060Z,84257.66
2022-11-27T03:22:54.685Z,84257.66
2022-11-27T03:25:24.310Z,83744.16
2022-11-27T03:27:58.092Z,83487.44
2022-11-27T03:30:29.046Z,82717.38
2022-11-27T03:32:57.715Z,84000.91
2022-11-27T03:35:28.637Z,83487.44
2022-11-27T03:37:57.890Z,83487.44
2022-11-27T03:40:32.725Z,83487.44
2022-11-27T03:43:06.549Z,83230.72
2022-11-27T03:45:44.881Z,83230.72
2022-11-27T03:48:23.509Z,82974.03
2022-11-27T03:51:04.328Z,82974.03
2022-11-27T03:53:44.831Z,82974.03
2022-11-27T03:56:23.166Z,83230.72
2022-11-27T03:58:57.514Z,82974.03
2022-11-27T04:01:28.826Z,81947.50
2022-11-27T04:03:57.261Z,83487.44
2022-11-27T04:06:25.806Z,82717.38
2022-11-27T04:08:54.097Z,82974.03
2022-11-27T04:11:22.617Z,83230.72
2022-11-27T04:13:52.405Z,83487.44
2022-11-27T04:16:21.151Z,83744.16
2022-11-27T04:18:51.556Z,83230.72
2022-11-27T04:21:20.450Z,81434.31
2022-11-27T04:23:48.718Z,80408.22
2022-11-27T04:26:17.406Z,81690.91
2022-11-27T04:28:49.072Z,82460.72
2022-11-27T04:31:17.605Z,81947.50
2022-11-27T04:33:46.422Z,82717.38
2022-11-27T04:36:16.666Z,82974.03
2022-11-27T04:38:45.670Z,82460.72
2022-11-27T04:41:14.497Z,81177.78
2022-11-27T04:43:42.974Z,82204.09
2022-11-27T04:46:11.838Z,81690.91
2022-11-27T04:48:40.543Z,82460.72
2022-11-27T04:51:08.918Z,81947.50
2022-11-27T04:53:39.153Z,81177.78
2022-11-27T04:56:08.298Z,79638.84
2022-11-27T04:58:36.766Z,79638.84
2022-11-27T05:01:05.760Z,81177.78
2022-11-27T05:03:34.544Z,81177.78
2022-11-27T05:06:03.625Z,80664.72
2022-11-27T05:08:33.326Z,81434.31
2022-11-27T05:11:04.999Z,81947.50
2022-11-27T05:13:33.681Z,80151.75
2022-11-27T05:16:02.941Z,80151.75
2022-11-27T05:18:32.566Z,79638.84
2022-11-27T05:21:03.527Z,79382.44
2022-11-27T05:23:32.406Z,79895.28
2022-11-27T05:26:01.116Z,80151.75
2022-11-27T05:28:31.261Z,79382.44
2022-11-27T05:30:59.773Z,78100.63
2022-11-27T05:33:28.613Z,79895.28
2022-11-27T05:35:57.016Z,78869.66
2022-11-27T05:38:25.496Z,77844.31
2022-11-27T05:40:53.879Z,76819.28
2022-11-27T05:43:22.422Z,78100.63
2022-11-27T05:45:52.227Z,78613.28
2022-11-27T05:48:20.803Z,77844.31
2022-11-27T05:50:49.600Z,77844.31
2022-11-27T05:53:18.088Z,76819.28
2022-11-27T05:55:46.784Z,76563.09
2022-11-27T05:58:15.550Z,75794.56
2022-11-27T06:00:44.013Z,76819.28
2022-11-27T06:03:17.156Z,77075.53
2022-11-27T06:05:45.847Z,76819.28
2022-11-27T06:08:14.425Z,76563.09
2022-11-27T06:10:43.072Z,77075.53
2022-11-27T06:13:11.666Z,76306.91
2022-11-27T06:15:40.557Z,77075.53
2022-11-27T06:18:09.479Z,78356.94
2022-11-27T06:20:43.729Z,76819.28
2022-11-27T06:23:13.737Z,77588.03
2022-11-27T06:25:42.177Z,77331.78
2022-11-27T06:28:11.140Z,78356.94
2022-11-27T06:30:39.622Z,78356.94
2022-11-27T06:33:08.313Z,78356.94
2022-11-27T06:35:36.800Z,78100.63
2022-11-27T06:38:06.661Z,79126.03
2022-11-27T06:40:35.195Z,77844.31
2022-11-27T06:43:04.053Z,78613.28
2022-11-27T06:45:32.645Z,77844.31
2022-11-27T06:48:00.972Z,77844.31
2022-11-27T06:50:29.573Z,77588.03
2022-11-27T06:52:57.967Z,77588.03
2022-11-27T06:55:28.109Z,79638.84
2022-11-27T06:57:56.691Z,77075.53
2022-11-27T07:00:26.079Z,76819.28
2022-11-27T07:02:56.212Z,77075.53
2022-11-27T07:05:25.716Z,76819.28
2022-11-27T07:07:54.668Z,78100.63
2022-11-27T07:10:23.369Z,77331.78
2022-11-27T07:12:53.247Z,78869.66
2022-11-27T07:15:22.185Z,78869.66
2022-11-27T07:17:50.927Z,78869.66
2022-11-27T07:20:19.934Z,78356.94
2022-11-27T07:22:51.327Z,79895.28
2022-11-27T07:25:19.850Z,78613.28
2022-11-27T07:27:48.507Z,77588.03
2022-11-27T07:30:18.722Z,78356.94
2022-11-27T07:32:47.550Z,78100.63
2022-11-27T07:35:16.074Z,77331.78
2022-11-27T07:37:44.539Z,77588.03
2022-11-27T07:40:14.965Z,76819.28
2022-11-27T07:42:44.123Z,76819.28
2022-11-27T07:45:13.344Z,77075.53
2022-11-27T07:47:43.815Z,78100.63
2022-11-27T07:50:13.817Z,77588.03
2022-11-27T07:52:42.490Z,76563.09
2022-11-27T07:56:49.322Z,74258.06
2022-11-27T07:59:18.084Z,75538.44
2022-11-27T08:01:47.124Z,75282.31
2022-11-27T08:04:19.381Z,76819.28
2022-11-27T08:06:50.492Z,75026.22
2022-11-27T08:09:18.908Z,75026.22
2022-11-27T08:11:48.824Z,71187.13
2022-11-27T08:14:19.514Z,75794.56
2022-11-27T08:16:48.067Z,73490.06
2022-11-27T08:19:16.770Z,74770.16
2022-11-27T08:21:45.748Z,74258.06
2022-11-27T08:24:14.321Z,72466.34
2022-11-27T08:26:43.277Z,71954.59
2022-11-27T08:29:14.359Z,71698.75
2022-11-27T08:31:43.242Z,74002.03
2022-11-27T08:34:11.916Z,72978.16
2022-11-27T08:36:41.255Z,70094.16
2022-11-27T08:39:09.696Z,71157.13
2022-11-27T08:41:40.472Z,74514.09
2022-11-27T08:44:09.536Z,71698.75
2022-11-27T08:46:39.573Z,72466.34
2022-11-27T08:49:08.507Z,72978.16
2022-11-27T08:51:37.837Z,71698.75
2022-11-27T08:54:06.726Z,71187.13
2022-11-27T08:56:36.275Z,69353.06
2022-11-27T08:59:04.868Z,71442.94
2022-11-27T09:01:34.474Z,70279.94
2022-11-27T09:04:05.222Z,69802.50
2022-11-27T09:06:35.227Z,70419.81
2022-11-27T09:09:06.510Z,70357.88
2022-11-27T09:11:36.638Z,69652.69
2022-11-27T09:14:06.560Z,70068.19
2022-11-27T09:16:35.794Z,69399.00
2022-11-27T09:19:05.874Z,70675.56
2022-11-27T09:21:34.513Z,70569.66
2022-11-27T09:24:03.593Z,70801.44
2022-11-27T09:26:32.425Z,70849.41
2022-11-27T09:29:01.248Z,71187.13
2022-11-27T09:31:29.888Z,71954.59
2022-11-27T09:33:59.602Z,70931.31
2022-11-27T09:36:29.481Z,71954.59
2022-11-27T09:39:00.338Z,71698.75
2022-11-27T09:41:40.512Z,72466.34
2022-11-27T09:44:27.944Z,71954.59
2022-11-27T09:46:58.017Z,72466.34
2022-11-27T09:49:30.950Z,72978.16
2022-11-27T09:52:05.689Z,73234.09
2022-11-27T09:54:39.227Z,73234.09
2022-11-27T09:57:15.695Z,74002.03
2022-11-27T09:59:49.793Z,72466.34
2022-11-27T10:02:26.437Z,73746.06
2022-11-27T10:05:13.776Z,73746.06
2022-11-27T10:08:03.218Z,73234.09
2022-11-27T10:10:42.050Z,74258.06
2022-11-27T10:13:23.016Z,74002.03
2022-11-27T10:15:57.872Z,75026.22
2022-11-27T10:18:34.362Z,75026.22
2022-11-27T10:21:11.215Z,76050.72
2022-11-27T10:23:48.298Z,75794.56
2022-11-27T10:26:21.191Z,76050.72
2022-11-27T10:28:59.110Z,75794.56
2022-11-27T10:31:37.288Z,74770.16
2022-11-27T10:34:19.841Z,75794.56
2022-11-27T10:36:51.858Z,76563.09
2022-11-27T10:39:30.174Z,76050.72
2022-11-27T10:42:07.496Z,77331.78
2022-11-27T10:44:40.878Z,77331.78
2022-11-27T10:47:13.010Z,76819.28
2022-11-27T10:49:43.873Z,75794.56
2022-11-27T10:52:15.794Z,75794.56
2022-11-27T10:54:51.247Z,76306.91
2022-11-27T10:57:40.297Z,76306.91
2022-11-27T11:00:15.374Z,75282.31
2022-11-27T11:02:44.258Z,74514.09
2022-11-27T11:05:37.679Z,75026.22
2022-11-27T11:08:19.539Z,74514.09
2022-11-27T11:10:55.305Z,74258.06
2022-11-27T11:13:27.467Z,73234.09
2022-11-27T11:15:59.741Z,72978.16
2022-11-27T11:18:30.400Z,73490.06
2022-11-27T11:21:01.270Z,72210.47
2022-11-27T11:23:33.676Z,71187.13
2022-11-27T11:26:08.835Z,67831.41
2022-11-27T11:28:48.824Z,70529.69
2022-11-27T11:31:20.545Z,67701.66
2022-11-27T11:33:54.046Z,67581.88
2022-11-27T11:36:23.211Z,65606.09
2022-11-27T11:38:52.899Z,66669.69
2022-11-27T11:41:24.386Z,63936.56
2022-11-27T11:43:58.982Z,66498.03
2022-11-27T11:46:32.237Z,65811.59
2022-11-27T11:49:04.707Z,63368.25
2022-11-27T11:51:57.959Z,62835.94
2022-11-27T11:54:50.648Z,63442.03
2022-11-27T11:58:10.348Z,63384.22
2022-11-27T12:01:04.770Z,62291.75
2022-11-27T12:03:57.956Z,62800.06
2022-11-27T12:06:38.346Z,61907.09
2022-11-27T12:09:23.614Z,61520.47
2022-11-27T12:11:58.654Z,61355.06
2022-11-27T12:14:42.601Z,62184.13
2022-11-27T12:17:27.122Z,61893.13
2022-11-27T12:20:22.714Z,62287.78
2022-11-27T12:23:25.859Z,62309.69
2022-11-27T12:26:06.223Z,62461.19
2022-11-27T12:29:12.120Z,62736.28
2022-11-27T12:31:59.776Z,62867.84
2022-11-27T12:34:38.464Z,62435.28
2022-11-27T12:37:25.135Z,62678.47
2022-11-27T12:40:06.463Z,62600.72
2022-11-27T12:42:43.422Z,62640.59
2022-11-27T12:45:22.032Z,62493.06
2022-11-27T12:47:58.416Z,62839.94
2022-11-27T12:50:41.711Z,62150.25
2022-11-27T12:53:24.463Z,61857.25
2022-11-27T12:56:02.410Z,61648.00
2022-11-27T12:58:35.022Z,62586.75
2022-11-27T13:01:09.315Z,62251.88
2022-11-27T13:03:48.626Z,62034.63
2022-11-27T13:06:21.541Z,61572.28
2022-11-27T13:08:56.728Z,61823.38
2022-11-27T13:11:29.813Z,61492.56
2022-11-27T13:14:05.031Z,61556.34
2022-11-27T13:16:38.466Z,61317.22
2022-11-27T13:19:18.197Z,61337.13
2022-11-27T13:21:49.046Z,61365.03
2022-11-27T13:24:18.054Z,60715.47
2022-11-27T13:27:00.900Z,61755.63
2022-11-27T13:29:33.288Z,61897.13
2022-11-27T13:32:04.202Z,61731.72
2022-11-27T13:34:45.162Z,62102.41
2022-11-27T13:37:28.515Z,61661.97
2022-11-27T13:40:06.805Z,62174.16
2022-11-27T13:42:38.332Z,60558.09
2022-11-27T13:45:11.618Z,60994.41
2022-11-27T13:47:43.748Z,61245.47
2022-11-27T13:50:18.394Z,60896.78
2022-11-27T13:52:57.575Z,60362.88
2022-11-27T13:55:29.083Z,59639.81
2022-11-27T13:58:01.142Z,59102.09
2022-11-27T14:00:36.683Z,59643.81
2022-11-27T14:03:06.734Z,59155.88
2022-11-27T14:05:41.538Z,59337.09
2022-11-27T14:08:22.295Z,59173.81
2022-11-27T14:10:58.751Z,59130.00
2022-11-27T14:13:40.475Z,59137.97
2022-11-27T14:16:24.092Z,58855.19
2022-11-27T14:18:54.586Z,58789.47
2022-11-27T14:21:41.306Z,58893.03
2022-11-27T14:24:37.196Z,58841.25
2022-11-27T14:27:16.846Z,58387.28
2022-11-27T14:29:46.232Z,58327.56
2022-11-27T14:32:17.115Z,58464.94
2022-11-27T14:34:48.107Z,58279.78
2022-11-27T14:37:24.944Z,58162.31
2022-11-27T14:39:54.573Z,58249.91
2022-11-27T14:42:28.603Z,58341.50
2022-11-27T14:45:07.481Z,58196.16
2022-11-27T14:47:37.464Z,58391.28
2022-11-27T14:50:07.629Z,58313.63
2022-11-27T14:52:38.277Z,58263.84
2022-11-27T14:55:15.699Z,58164.31
2022-11-27T14:57:45.926Z,58399.25
2022-11-27T15:00:20.761Z,58062.78
2022-11-27T15:02:51.747Z,58102.59
2022-11-27T15:05:23.589Z,58134.44
2022-11-27T15:07:57.865Z,58293.72
2022-11-27T15:10:33.842Z,58228.03
2022-11-27T15:13:04.956Z,58218.06
2022-11-27T15:15:38.486Z,57682.56
2022-11-27T15:18:09.326Z,58114.53
2022-11-27T15:20:41.147Z,58094.63
2022-11-27T15:23:18.527Z,57899.56
2022-11-27T15:25:50.121Z,57991.13
2022-11-27T15:28:36.346Z,57873.66
2022-11-27T15:31:24.271Z,57806.00
2022-11-27T15:33:58.668Z,57849.78
2022-11-27T15:36:27.915Z,57879.66
2022-11-27T15:39:22.859Z,57917.47
2022-11-27T15:41:56.860Z,58080.69
2022-11-27T15:44:26.647Z,57887.59
2022-11-27T15:46:58.195Z,57875.66
2022-11-27T15:49:27.116Z,57847.78
2022-11-27T15:51:57.361Z,57987.13
2022-11-27T15:54:27.671Z,57742.28
2022-11-27T15:56:56.455Z,57875.66
2022-11-27T15:59:27.522Z,57720.41
2022-11-27T16:01:58.094Z,57867.69
2022-11-27T16:04:26.598Z,57913.47
2022-11-27T16:06:55.378Z,57807.97
2022-11-27T16:09:24.017Z,57905.53
2022-11-27T16:11:54.916Z,58124.50
2022-11-27T16:14:23.565Z,58098.63
2022-11-27T16:16:53.955Z,58174.28
2022-11-27T16:19:22.684Z,58257.88
2022-11-27T16:21:51.839Z,58255.91
2022-11-27T16:24:20.440Z,58500.78
2022-11-27T16:26:49.107Z,58648.13
2022-11-27T16:29:19.354Z,58681.97
2022-11-27T16:31:48.934Z,58787.50
2022-11-27T16:34:18.627Z,59006.53
2022-11-27T16:36:48.747Z,59010.50
2022-11-27T16:39:19.151Z,59215.63
2022-11-27T16:41:48.219Z,59372.94
2022-11-27T16:44:18.759Z,59217.63
2022-11-27T16:46:47.492Z,59066.25
2022-11-27T16:49:17.308Z,59335.09
2022-11-27T16:51:46.253Z,59177.78
2022-11-27T16:54:16.427Z,59299.25
2022-11-27T16:56:45.362Z,59114.06
2022-11-27T16:59:16.140Z,59297.28
2022-11-27T17:01:47.018Z,59510.38
2022-11-27T17:04:19.278Z,59486.47
2022-11-27T17:06:48.896Z,58899.00
2022-11-27T17:09:18.249Z,59040.38
2022-11-27T17:11:49.726Z,59074.22
2022-11-27T17:14:20.554Z,58998.56
2022-11-27T17:16:51.847Z,58914.94
2022-11-27T17:19:20.548Z,58654.09
2022-11-27T17:21:49.195Z,58735.72
2022-11-27T17:24:18.664Z,58751.66
2022-11-27T17:26:49.174Z,58608.28
2022-11-27T17:29:19.413Z,58253.91
2022-11-27T17:31:47.963Z,58313.63
2022-11-27T17:34:18.900Z,58098.63
2022-11-27T17:36:51.084Z,57845.81
2022-11-27T17:39:19.955Z,57821.91
2022-11-27T17:41:50.672Z,57481.53
2022-11-27T17:44:19.608Z,57861.72
2022-11-27T17:46:50.219Z,57833.84
2022-11-27T17:49:22.272Z,57652.72
2022-11-27T17:51:52.397Z,57596.97
2022-11-27T17:54:22.149Z,57819.94
2022-11-27T17:56:51.745Z,57802.00
2022-11-27T17:59:21.700Z,57764.19
2022-11-27T18:01:53.948Z,57873.66
2022-11-27T18:04:24.358Z,57792.06
2022-11-27T18:06:53.145Z,57929.41
2022-11-27T18:09:25.702Z,58022.97
2022-11-27T18:11:57.411Z,58116.53
2022-11-27T18:14:25.939Z,58150.38
2022-11-27T18:16:54.518Z,58084.69
2022-11-27T18:19:24.569Z,58060.78
2022-11-27T18:21:53.145Z,58168.28
2022-11-27T18:24:23.490Z,58315.63
2022-11-27T18:27:09.159Z,58472.91
2022-11-27T18:29:39.494Z,58660.06
2022-11-27T18:32:08.456Z,58668.03
2022-11-27T18:34:38.500Z,58877.09
2022-11-27T18:37:07.666Z,58920.91
2022-11-27T18:39:36.760Z,59012.50
2022-11-27T18:42:06.345Z,59478.50
2022-11-27T18:44:41.136Z,59522.31
2022-11-27T18:47:15.949Z,59560.16
2022-11-27T18:49:48.901Z,59912.69
2022-11-27T18:52:17.848Z,60004.31
2022-11-27T18:54:47.292Z,60329.00
2022-11-27T18:57:16.123Z,60404.69
2022-11-27T18:59:48.147Z,60627.81
2022-11-27T19:02:17.463Z,61006.38
2022-11-27T19:04:47.779Z,61078.09
2022-11-27T19:07:16.371Z,61319.19
2022-11-27T19:09:47.129Z,61675.91
2022-11-27T19:12:17.126Z,61863.25
2022-11-27T19:14:46.481Z,61962.88
2022-11-27T19:17:16.331Z,62124.31
2022-11-27T19:20:00.787Z,62172.16
2022-11-27T19:22:31.049Z,62249.91
2022-11-27T19:25:00.492Z,62616.66
2022-11-27T19:27:29.873Z,62287.78
2022-11-27T19:29:58.416Z,62760.19
2022-11-27T19:32:27.476Z,62586.75
2022-11-27T19:34:56.617Z,62620.66
2022-11-27T19:37:34.463Z,62931.63
2022-11-27T19:40:12.440Z,63314.44
2022-11-27T19:42:42.218Z,62925.66
2022-11-27T19:45:11.782Z,63392.19
2022-11-27T19:47:40.365Z,63689.28
2022-11-27T19:50:09.460Z,63705.25
2022-11-27T19:52:38.341Z,63934.56
2022-11-27T19:55:08.065Z,64010.34
2022-11-27T19:57:38.699Z,64219.75
2022-11-27T20:00:08.884Z,63824.88
2022-11-27T20:02:45.072Z,63858.78
2022-11-27T20:05:13.975Z,64596.69
2022-11-27T20:07:42.558Z,64132.00
2022-11-27T20:10:12.974Z,63796.97
2022-11-27T20:12:43.744Z,64315.47
2022-11-27T20:15:14.601Z,63816.91
2022-11-27T20:17:43.863Z,63581.63
2022-11-27T20:20:16.626Z,63769.06
2022-11-27T20:22:45.844Z,63631.47
2022-11-27T20:25:19.906Z,63757.09
2022-11-27T20:27:51.575Z,62760.19
2022-11-27T20:30:20.758Z,62572.81
2022-11-27T20:32:49.684Z,63322.41
2022-11-27T20:35:18.564Z,63725.19
2022-11-27T20:37:48.268Z,63513.81
2022-11-27T20:40:17.206Z,63178.84
2022-11-27T20:42:46.201Z,62309.69
2022-11-27T20:45:20.353Z,62969.50
2022-11-27T20:47:52.072Z,62218.00
2022-11-27T20:50:23.781Z,62808.03
2022-11-27T20:52:52.540Z,62331.63
2022-11-27T20:55:21.117Z,62576.78
2022-11-27T20:57:54.755Z,62483.09
2022-11-27T21:00:26.385Z,62427.28
2022-11-27T21:02:55.141Z,62644.56
2022-11-27T21:05:23.932Z,62449.22
2022-11-27T21:07:52.491Z,62162.19
2022-11-27T21:10:23.499Z,61630.06
2022-11-27T21:12:52.014Z,61773.56
2022-11-27T21:15:20.765Z,61727.72
2022-11-27T21:17:51.109Z,61644.03
2022-11-27T21:20:20.797Z,61574.28
2022-11-27T21:22:49.798Z,61209.59
2022-11-27T21:25:22.671Z,61504.53
2022-11-27T21:27:56.339Z,61211.59
2022-11-27T21:30:25.206Z,61404.88
2022-11-27T21:32:55.981Z,61570.28
2022-11-27T21:35:31.400Z,60683.59
2022-11-27T21:38:01.798Z,60904.75
2022-11-27T21:40:30.871Z,60926.69
2022-11-27T21:42:59.737Z,61042.25
2022-11-27T21:45:28.775Z,60651.72
2022-11-27T21:47:59.708Z,60597.94
2022-11-27T21:50:28.629Z,60364.84
2022-11-27T21:52:57.690Z,60508.28
2022-11-27T21:55:26.561Z,60611.88
2022-11-27T21:57:55.642Z,60153.72
2022-11-27T22:00:25.579Z,60044.16
2022-11-27T22:02:54.554Z,59990.38
2022-11-27T22:05:24.623Z,59633.84
2022-11-27T22:07:53.197Z,59502.41
2022-11-27T22:10:21.882Z,58998.56
2022-11-27T22:12:51.225Z,59496.41
2022-11-27T22:15:20.253Z,59080.22
2022-11-27T22:17:49.956Z,59671.69
2022-11-27T22:20:19.233Z,58906.97
2022-11-27T22:22:50.666Z,58421.13
2022-11-27T22:25:19.442Z,58401.22
2022-11-27T22:27:48.456Z,58273.81
2022-11-27T22:30:17.840Z,58419.16
2022-11-27T22:32:47.112Z,58106.59
2022-11-27T22:35:15.801Z,57815.94
2022-11-27T22:37:44.638Z,57815.94
2022-11-27T22:40:16.032Z,57557.19
2022-11-27T22:42:44.654Z,57382.03
2022-11-27T22:45:13.345Z,57330.28
2022-11-27T22:47:42.271Z,57409.88
2022-11-27T22:50:11.104Z,57561.16
2022-11-27T22:52:39.876Z,57461.63
2022-11-27T22:55:09.970Z,57501.44
2022-11-27T22:57:40.919Z,57656.69
2022-11-27T23:00:11.278Z,57495.47
2022-11-27T23:02:40.194Z,57587.03
2022-11-27T23:05:09.771Z,57437.75
2022-11-27T23:07:38.809Z,57533.28
2022-11-27T23:10:09.448Z,57553.19
2022-11-27T23:12:38.021Z,57585.03
2022-11-27T23:15:08.853Z,57589.03
2022-11-27T23:17:37.645Z,57585.03
2022-11-27T23:20:07.885Z,57616.88
2022-11-27T23:22:36.818Z,57541.25
2022-11-27T23:25:05.738Z,57883.63
2022-11-27T23:27:34.210Z,57813.94
2022-11-27T23:30:02.689Z,58003.06
2022-11-27T23:32:32.906Z,57963.25
2022-11-27T23:35:02.345Z,58170.28
2022-11-27T23:37:31.436Z,58212.09
2022-11-27T23:40:00.269Z,58520.69
2022-11-27T23:42:29.262Z,58865.16
2022-11-27T23:44:58.012Z,58994.56
2022-11-27T23:47:26.906Z,59028.44
2022-11-27T23:49:56.850Z,59293.28
2022-11-27T23:52:25.598Z,59494.44
2022-11-27T23:54:54.944Z,59731.44
2022-11-27T23:57:23.555Z,60014.28
2022-11-27T23:59:52.434Z,60237.38
